UAL1861 KIAH-MMVR
Flight info
| Callsign | UAL1861 |
|---|---|
| Flight time | 1h 49m |
| Altitude | 36000 |
| Route | RITAA7 WWREN DCT BRO/N0460F370 DCT IPRUL UT48 AVALI UT61 DURIB DURIB1A |
| Aircraft | B38M/M-SDE1FGHILORVWXY/HB1 |
Departure
| Time | 2026-04-22 04:17 |
|---|---|
| Airport | George Bush Intercontinental Airport (KIAH) |
Arrival
| Time | 2026-04-22 06:06 |
|---|---|
| Airport | General Heriberto Jara International Airport (MMVR) |
| Time | Latitude | Longitude | Altitude | Speed | Heading |
|---|---|---|---|---|---|
| 2026-04-22 03:53 | 29.98438 | -95.33470 | 109 ft | 0 kts | 327° |
| 2026-04-22 04:07 | 29.98435 | -95.33468 | 109 ft | 3 kts | 326° |
| 2026-04-22 04:08 | 29.98418 | -95.33448 | 109 ft | 4 kts | 290° |
| 2026-04-22 04:08 | 29.98418 | -95.33421 | 109 ft | 4 kts | 241° |
| 2026-04-22 04:08 | 29.98435 | -95.33401 | 107 ft | 4 kts | 201° |
| 2026-04-22 04:08 | 29.98446 | -95.33397 | 109 ft | 0 kts | 183° |
| 2026-04-22 04:11 | 29.98445 | -95.33397 | 109 ft | 1 kts | 183° |
| 2026-04-22 04:11 | 29.98412 | -95.33398 | 108 ft | 10 kts | 180° |
| 2026-04-22 04:11 | 29.98307 | -95.33418 | 109 ft | 18 kts | 224° |
| 2026-04-22 04:11 | 29.98301 | -95.33535 | 109 ft | 17 kts | 274° |
| 2026-04-22 04:12 | 29.98314 | -95.33699 | 109 ft | 24 kts | 275° |
| 2026-04-22 04:12 | 29.98316 | -95.33890 | 109 ft | 22 kts | 270° |
| 2026-04-22 04:12 | 29.98355 | -95.34060 | 109 ft | 23 kts | 300° |
| 2026-04-22 04:12 | 29.98376 | -95.34242 | 110 ft | 24 kts | 270° |
| 2026-04-22 04:13 | 29.98363 | -95.34436 | 109 ft | 25 kts | 242° |
| 2026-04-22 04:13 | 29.98324 | -95.34631 | 109 ft | 26 kts | 270° |
| 2026-04-22 04:13 | 29.98324 | -95.34832 | 109 ft | 25 kts | 270° |
| 2026-04-22 04:13 | 29.98323 | -95.35037 | 109 ft | 23 kts | 270° |
| 2026-04-22 04:14 | 29.98374 | -95.35198 | 109 ft | 23 kts | 334° |
| 2026-04-22 04:14 | 29.98517 | -95.35285 | 109 ft | 24 kts | 332° |
| 2026-04-22 04:14 | 29.98667 | -95.35378 | 109 ft | 25 kts | 332° |
| 2026-04-22 04:14 | 29.98823 | -95.35473 | 109 ft | 25 kts | 332° |
| 2026-04-22 04:15 | 29.98884 | -95.35543 | 109 ft | 11 kts | 274° |
| 2026-04-22 04:15 | 29.98855 | -95.35618 | 108 ft | 11 kts | 242° |
| 2026-04-22 04:15 | 29.98816 | -95.35701 | 110 ft | 12 kts | 242° |
| 2026-04-22 04:15 | 29.98779 | -95.35767 | 110 ft | 4 kts | 209° |
| 2026-04-22 04:16 | 29.98764 | -95.35769 | 111 ft | 2 kts | 167° |
| 2026-04-22 04:16 | 29.98211 | -95.35433 | 110 ft | 114 kts | 152° |
| 2026-04-22 04:16 | 29.97326 | -95.34877 | 130 ft | 170 kts | 151° |
| 2026-04-22 04:17 | 29.96218 | -95.34205 | 742 ft | 182 kts | 147° |
| 2026-04-22 04:17 | 29.95203 | -95.33371 | 1744 ft | 173 kts | 140° |
| 2026-04-22 04:17 | 29.94292 | -95.32326 | 2335 ft | 200 kts | 130° |
| 2026-04-22 04:17 | 29.93404 | -95.30959 | 2857 ft | 225 kts | 129° |
| 2026-04-22 04:18 | 29.92453 | -95.29478 | 3609 ft | 240 kts | 129° |
| 2026-04-22 04:18 | 29.91428 | -95.27886 | 3793 ft | 251 kts | 129° |
| 2026-04-22 04:18 | 29.90374 | -95.26252 | 3892 ft | 256 kts | 129° |
| 2026-04-22 04:18 | 29.89302 | -95.24593 | 3960 ft | 258 kts | 129° |
| 2026-04-22 04:19 | 29.88239 | -95.22903 | 4285 ft | 261 kts | 128° |
| 2026-04-22 04:19 | 29.87168 | -95.21178 | 4804 ft | 269 kts | 128° |
| 2026-04-22 04:19 | 29.86054 | -95.19392 | 4935 ft | 272 kts | 128° |
| 2026-04-22 04:19 | 29.84965 | -95.17645 | 4988 ft | 273 kts | 128° |
| 2026-04-22 04:20 | 29.83857 | -95.15870 | 4991 ft | 273 kts | 128° |
| 2026-04-22 04:20 | 29.82733 | -95.14082 | 4970 ft | 273 kts | 130° |
| 2026-04-22 04:20 | 29.81353 | -95.12623 | 5479 ft | 268 kts | 146° |
| 2026-04-22 04:20 | 29.79854 | -95.11304 | 6321 ft | 276 kts | 144° |
| 2026-04-22 04:21 | 29.78303 | -95.09927 | 7050 ft | 284 kts | 144° |
| 2026-04-22 04:21 | 29.76587 | -95.08833 | 7856 ft | 284 kts | 167° |
| 2026-04-22 04:21 | 29.74639 | -95.08700 | 8666 ft | 282 kts | 193° |
| 2026-04-22 04:21 | 29.72826 | -95.09517 | 9422 ft | 282 kts | 216° |
| 2026-04-22 04:22 | 29.71251 | -95.10889 | 10215 ft | 287 kts | 219° |
| 2026-04-22 04:22 | 29.69635 | -95.12347 | 10649 ft | 305 kts | 220° |
| 2026-04-22 04:22 | 29.67922 | -95.13921 | 11021 ft | 324 kts | 221° |
| 2026-04-22 04:22 | 29.66145 | -95.15596 | 11521 ft | 336 kts | 224° |
| 2026-04-22 04:23 | 29.64448 | -95.17447 | 12342 ft | 336 kts | 226° |
| 2026-04-22 04:23 | 29.62741 | -95.19305 | 13159 ft | 340 kts | 226° |
| 2026-04-22 04:23 | 29.61016 | -95.21174 | 13958 ft | 342 kts | 226° |
| 2026-04-22 04:23 | 29.59231 | -95.23001 | 14632 ft | 348 kts | 218° |
| 2026-04-22 04:24 | 29.57077 | -95.24327 | 15358 ft | 354 kts | 210° |
| 2026-04-22 04:24 | 29.54860 | -95.25599 | 16005 ft | 358 kts | 210° |
| 2026-04-22 04:24 | 29.52621 | -95.26871 | 16724 ft | 361 kts | 210° |
| 2026-04-22 04:24 | 29.50349 | -95.28154 | 17390 ft | 365 kts | 210° |
| 2026-04-22 04:25 | 29.48058 | -95.29442 | 18027 ft | 369 kts | 209° |
| 2026-04-22 04:25 | 29.45743 | -95.30743 | 18615 ft | 372 kts | 209° |
| 2026-04-22 04:25 | 29.43411 | -95.32052 | 19143 ft | 375 kts | 210° |
| 2026-04-22 04:25 | 29.41056 | -95.33373 | 19698 ft | 376 kts | 210° |
| 2026-04-22 04:26 | 29.38695 | -95.34696 | 20160 ft | 379 kts | 210° |
| 2026-04-22 04:26 | 29.36283 | -95.36048 | 20599 ft | 382 kts | 210° |
| 2026-04-22 04:26 | 29.33890 | -95.37388 | 21102 ft | 384 kts | 210° |
| 2026-04-22 04:26 | 29.31481 | -95.38736 | 21551 ft | 387 kts | 210° |
| 2026-04-22 04:27 | 29.29053 | -95.40094 | 21982 ft | 389 kts | 210° |
| 2026-04-22 04:27 | 29.26611 | -95.41459 | 22391 ft | 391 kts | 210° |
| 2026-04-22 04:27 | 29.24156 | -95.42831 | 22786 ft | 394 kts | 210° |
| 2026-04-22 04:27 | 29.21689 | -95.44208 | 23174 ft | 396 kts | 210° |
| 2026-04-22 04:28 | 29.19206 | -95.45594 | 23556 ft | 398 kts | 210° |
| 2026-04-22 04:28 | 29.16707 | -95.46988 | 23903 ft | 401 kts | 210° |
| 2026-04-22 04:28 | 29.14199 | -95.48386 | 24237 ft | 402 kts | 210° |
| 2026-04-22 04:28 | 29.11677 | -95.49792 | 24557 ft | 404 kts | 210° |
| 2026-04-22 04:29 | 29.09152 | -95.51198 | 24896 ft | 405 kts | 211° |
| 2026-04-22 04:29 | 29.06613 | -95.52611 | 25211 ft | 406 kts | 211° |
| 2026-04-22 04:29 | 29.04072 | -95.54025 | 25498 ft | 407 kts | 211° |
| 2026-04-22 04:29 | 29.01516 | -95.55446 | 25769 ft | 409 kts | 211° |
| 2026-04-22 04:30 | 28.98955 | -95.56868 | 26017 ft | 410 kts | 211° |
| 2026-04-22 04:30 | 28.96397 | -95.58290 | 26259 ft | 411 kts | 211° |
| 2026-04-22 04:30 | 28.93819 | -95.59721 | 26455 ft | 412 kts | 211° |
| 2026-04-22 04:30 | 28.91242 | -95.61151 | 26651 ft | 412 kts | 211° |
| 2026-04-22 04:31 | 28.88729 | -95.62716 | 26797 ft | 411 kts | 214° |
| 2026-04-22 04:31 | 28.86234 | -95.64305 | 26963 ft | 413 kts | 214° |
| 2026-04-22 04:31 | 28.83719 | -95.65891 | 27122 ft | 413 kts | 214° |
| 2026-04-22 04:31 | 28.81196 | -95.67478 | 27333 ft | 413 kts | 214° |
| 2026-04-22 04:32 | 28.78674 | -95.69061 | 27518 ft | 414 kts | 214° |
| 2026-04-22 04:32 | 28.76146 | -95.70647 | 27681 ft | 415 kts | 214° |
| 2026-04-22 04:32 | 28.73586 | -95.72252 | 27833 ft | 416 kts | 214° |
| 2026-04-22 04:32 | 28.71051 | -95.73839 | 28004 ft | 417 kts | 214° |
| 2026-04-22 04:33 | 28.68495 | -95.75439 | 28196 ft | 418 kts | 214° |
| 2026-04-22 04:33 | 28.65945 | -95.77035 | 28372 ft | 419 kts | 214° |
| 2026-04-22 04:33 | 28.63392 | -95.78631 | 28546 ft | 420 kts | 214° |
| 2026-04-22 04:33 | 28.60831 | -95.80232 | 28721 ft | 420 kts | 214° |
| 2026-04-22 04:34 | 28.58268 | -95.81832 | 28889 ft | 421 kts | 214° |
| 2026-04-22 04:34 | 28.55689 | -95.83443 | 29025 ft | 422 kts | 214° |
| 2026-04-22 04:34 | 28.53113 | -95.85050 | 29129 ft | 423 kts | 213° |
| 2026-04-22 04:35 | 28.47928 | -95.88282 | 29312 ft | 426 kts | 213° |
| 2026-04-22 04:35 | 28.45333 | -95.89899 | 29428 ft | 426 kts | 213° |
| 2026-04-22 04:35 | 28.42735 | -95.91516 | 29502 ft | 427 kts | 213° |
| 2026-04-22 04:36 | 28.37517 | -95.94762 | 29706 ft | 429 kts | 213° |
| 2026-04-22 04:36 | 28.34901 | -95.96387 | 30122 ft | 429 kts | 213° |
| 2026-04-22 04:36 | 28.32280 | -95.98015 | 30417 ft | 431 kts | 213° |
| 2026-04-22 04:36 | 28.29646 | -95.99651 | 30710 ft | 432 kts | 213° |
| 2026-04-22 04:37 | 28.27005 | -96.01289 | 30991 ft | 434 kts | 213° |
| 2026-04-22 04:37 | 28.24351 | -96.02935 | 31273 ft | 436 kts | 213° |
| 2026-04-22 04:37 | 28.21683 | -96.04588 | 31507 ft | 438 kts | 213° |
| 2026-04-22 04:37 | 28.18999 | -96.06250 | 31744 ft | 441 kts | 213° |
| 2026-04-22 04:38 | 28.16309 | -96.07916 | 32109 ft | 440 kts | 213° |
| 2026-04-22 04:38 | 28.13626 | -96.09567 | 32526 ft | 438 kts | 213° |
| 2026-04-22 04:38 | 28.10883 | -96.11182 | 32882 ft | 439 kts | 213° |
| 2026-04-22 04:38 | 28.08181 | -96.12774 | 33326 ft | 436 kts | 213° |
| 2026-04-22 04:39 | 28.05493 | -96.14360 | 33726 ft | 434 kts | 213° |
| 2026-04-22 04:39 | 28.02829 | -96.15934 | 34167 ft | 431 kts | 213° |
| 2026-04-22 04:39 | 28.00176 | -96.17499 | 34574 ft | 428 kts | 213° |
| 2026-04-22 04:39 | 27.97542 | -96.19053 | 34893 ft | 427 kts | 213° |
| 2026-04-22 04:40 | 27.94907 | -96.20606 | 35152 ft | 426 kts | 213° |
| 2026-04-22 04:40 | 27.92283 | -96.22153 | 35483 ft | 425 kts | 214° |
| 2026-04-22 04:40 | 27.89667 | -96.23693 | 35790 ft | 423 kts | 214° |
| 2026-04-22 04:40 | 27.87064 | -96.25225 | 36076 ft | 421 kts | 214° |
| 2026-04-22 04:41 | 27.84472 | -96.26750 | 36125 ft | 419 kts | 214° |
| 2026-04-22 04:41 | 27.79340 | -96.29766 | 36120 ft | 415 kts | 214° |
| 2026-04-22 04:42 | 27.74215 | -96.32775 | 36113 ft | 416 kts | 214° |
| 2026-04-22 04:42 | 27.69078 | -96.35789 | 36113 ft | 416 kts | 214° |
| 2026-04-22 04:43 | 27.63951 | -96.38792 | 36111 ft | 416 kts | 214° |
| 2026-04-22 04:43 | 27.58824 | -96.41794 | 36111 ft | 416 kts | 214° |
| 2026-04-22 04:44 | 27.53685 | -96.44798 | 36107 ft | 416 kts | 214° |
| 2026-04-22 04:44 | 27.48549 | -96.47798 | 36105 ft | 415 kts | 214° |
| 2026-04-22 04:45 | 27.43418 | -96.50791 | 36105 ft | 416 kts | 214° |
| 2026-04-22 04:45 | 27.38296 | -96.53776 | 36105 ft | 416 kts | 214° |
| 2026-04-22 04:46 | 27.33112 | -96.56794 | 36106 ft | 416 kts | 214° |
| 2026-04-22 04:46 | 27.28848 | -96.59275 | 36093 ft | 414 kts | 214° |
| 2026-04-22 04:47 | 27.23728 | -96.62250 | 36100 ft | 414 kts | 214° |
| 2026-04-22 04:47 | 27.18613 | -96.65219 | 36103 ft | 414 kts | 214° |
| 2026-04-22 04:48 | 27.13459 | -96.68208 | 36105 ft | 414 kts | 214° |
| 2026-04-22 04:48 | 27.08354 | -96.71165 | 36101 ft | 414 kts | 214° |
| 2026-04-22 04:49 | 27.03225 | -96.74133 | 36095 ft | 414 kts | 214° |
| 2026-04-22 04:49 | 26.98104 | -96.77093 | 36085 ft | 413 kts | 214° |
| 2026-04-22 04:50 | 26.92995 | -96.80044 | 36094 ft | 413 kts | 214° |
| 2026-04-22 04:50 | 26.87881 | -96.82994 | 36092 ft | 413 kts | 214° |
| 2026-04-22 04:51 | 26.82773 | -96.85937 | 36094 ft | 413 kts | 214° |
| 2026-04-22 04:51 | 26.77673 | -96.88874 | 36088 ft | 412 kts | 214° |
| 2026-04-22 04:52 | 26.72533 | -96.91830 | 36090 ft | 412 kts | 214° |
| 2026-04-22 04:52 | 26.67432 | -96.94760 | 36079 ft | 412 kts | 214° |
| 2026-04-22 04:53 | 26.62334 | -96.97686 | 36092 ft | 412 kts | 214° |
| 2026-04-22 04:53 | 26.57232 | -97.00612 | 36092 ft | 412 kts | 214° |
| 2026-04-22 04:54 | 26.52137 | -97.03530 | 36091 ft | 412 kts | 214° |
| 2026-04-22 04:54 | 26.47035 | -97.06449 | 36090 ft | 412 kts | 214° |
| 2026-04-22 04:55 | 26.41934 | -97.09365 | 36091 ft | 412 kts | 214° |
| 2026-04-22 04:55 | 26.36833 | -97.12279 | 36071 ft | 412 kts | 214° |
| 2026-04-22 04:56 | 26.31703 | -97.15205 | 36089 ft | 411 kts | 214° |
| 2026-04-22 04:56 | 26.26601 | -97.18113 | 36095 ft | 411 kts | 214° |
| 2026-04-22 04:57 | 26.21510 | -97.21012 | 36099 ft | 411 kts | 214° |
| 2026-04-22 04:57 | 26.16417 | -97.23909 | 36100 ft | 411 kts | 214° |
| 2026-04-22 04:58 | 26.11322 | -97.26805 | 36100 ft | 411 kts | 214° |
| 2026-04-22 04:58 | 26.06222 | -97.29700 | 36075 ft | 412 kts | 214° |
| 2026-04-22 04:59 | 26.01114 | -97.32598 | 36088 ft | 412 kts | 214° |
| 2026-04-22 04:59 | 25.96005 | -97.35493 | 36091 ft | 412 kts | 214° |
| 2026-04-22 05:00 | 25.90424 | -97.37302 | 36085 ft | 436 kts | 189° |
| 2026-04-22 05:00 | 25.84297 | -97.37301 | 36082 ft | 442 kts | 188° |
| 2026-04-22 05:01 | 25.78144 | -97.37204 | 36092 ft | 443 kts | 188° |
| 2026-04-22 05:01 | 25.71975 | -97.37072 | 36085 ft | 445 kts | 188° |
| 2026-04-22 05:02 | 25.65778 | -97.36934 | 36085 ft | 445 kts | 188° |
| 2026-04-22 05:02 | 25.59587 | -97.36797 | 36084 ft | 445 kts | 188° |
| 2026-04-22 05:03 | 25.53398 | -97.36660 | 36082 ft | 445 kts | 188° |
| 2026-04-22 05:03 | 25.47168 | -97.36522 | 36080 ft | 445 kts | 188° |
| 2026-04-22 05:04 | 25.40970 | -97.36385 | 36079 ft | 446 kts | 187° |
| 2026-04-22 05:04 | 25.34772 | -97.36248 | 36079 ft | 446 kts | 187° |
| 2026-04-22 05:05 | 25.28547 | -97.36111 | 36082 ft | 446 kts | 187° |
| 2026-04-22 05:05 | 25.22337 | -97.35974 | 36082 ft | 446 kts | 187° |
| 2026-04-22 05:06 | 25.16130 | -97.35837 | 36075 ft | 446 kts | 187° |
| 2026-04-22 05:06 | 25.09923 | -97.35700 | 36070 ft | 446 kts | 187° |
| 2026-04-22 05:07 | 25.03721 | -97.35564 | 36080 ft | 446 kts | 187° |
| 2026-04-22 05:07 | 24.97519 | -97.35428 | 36081 ft | 446 kts | 187° |
| 2026-04-22 05:08 | 24.91311 | -97.35292 | 36078 ft | 446 kts | 187° |
| 2026-04-22 05:08 | 24.85109 | -97.35156 | 36077 ft | 446 kts | 187° |
| 2026-04-22 05:09 | 24.78908 | -97.35020 | 36083 ft | 445 kts | 187° |
| 2026-04-22 05:09 | 24.72722 | -97.34885 | 36075 ft | 445 kts | 187° |
| 2026-04-22 05:10 | 24.66535 | -97.34750 | 36085 ft | 445 kts | 187° |
| 2026-04-22 05:10 | 24.60347 | -97.34614 | 36079 ft | 444 kts | 187° |
| 2026-04-22 05:11 | 24.54166 | -97.34480 | 36077 ft | 445 kts | 187° |
| 2026-04-22 05:11 | 24.47941 | -97.33776 | 36098 ft | 452 kts | 181° |
| 2026-04-22 05:12 | 24.41667 | -97.32891 | 36078 ft | 451 kts | 181° |
| 2026-04-22 05:12 | 24.35431 | -97.32003 | 36082 ft | 452 kts | 181° |
| 2026-04-22 05:13 | 24.29202 | -97.31116 | 36078 ft | 452 kts | 181° |
| 2026-04-22 05:13 | 24.22963 | -97.30229 | 36082 ft | 452 kts | 181° |
| 2026-04-22 05:14 | 24.16727 | -97.29344 | 36076 ft | 452 kts | 180° |
| 2026-04-22 05:14 | 24.10490 | -97.28459 | 36077 ft | 452 kts | 180° |
| 2026-04-22 05:15 | 24.04254 | -97.27575 | 36079 ft | 452 kts | 180° |
| 2026-04-22 05:15 | 23.98016 | -97.26691 | 36083 ft | 452 kts | 180° |
| 2026-04-22 05:16 | 23.91775 | -97.25808 | 36085 ft | 452 kts | 180° |
| 2026-04-22 05:16 | 23.85537 | -97.24927 | 36079 ft | 453 kts | 180° |
| 2026-04-22 05:17 | 23.79282 | -97.24043 | 36081 ft | 453 kts | 180° |
| 2026-04-22 05:17 | 23.74048 | -97.23305 | 36083 ft | 453 kts | 180° |
| 2026-04-22 05:18 | 23.64675 | -97.21984 | 36083 ft | 453 kts | 180° |
| 2026-04-22 05:18 | 23.58429 | -97.21105 | 36084 ft | 453 kts | 180° |
| 2026-04-22 05:19 | 23.52166 | -97.20225 | 36082 ft | 454 kts | 180° |
| 2026-04-22 05:19 | 23.45903 | -97.19345 | 36083 ft | 454 kts | 180° |
| 2026-04-22 05:20 | 23.39637 | -97.18465 | 36080 ft | 454 kts | 180° |
| 2026-04-22 05:20 | 23.33374 | -97.17587 | 36081 ft | 454 kts | 180° |
| 2026-04-22 05:21 | 23.27070 | -97.16704 | 36083 ft | 454 kts | 180° |
| 2026-04-22 05:21 | 23.20801 | -97.15826 | 36089 ft | 455 kts | 179° |
| 2026-04-22 05:22 | 23.14523 | -97.14948 | 36083 ft | 454 kts | 179° |
| 2026-04-22 05:22 | 23.08252 | -97.14073 | 36083 ft | 455 kts | 179° |
| 2026-04-22 05:23 | 23.01979 | -97.13198 | 36078 ft | 455 kts | 179° |
| 2026-04-22 05:23 | 22.95704 | -97.12323 | 36081 ft | 455 kts | 179° |
| 2026-04-22 05:24 | 22.89432 | -97.11450 | 36083 ft | 454 kts | 179° |
| 2026-04-22 05:24 | 22.83156 | -97.10577 | 36082 ft | 454 kts | 179° |
| 2026-04-22 05:25 | 22.76887 | -97.09705 | 36083 ft | 454 kts | 179° |
| 2026-04-22 05:25 | 22.70618 | -97.08835 | 36084 ft | 454 kts | 179° |
| 2026-04-22 05:26 | 22.64348 | -97.07965 | 36083 ft | 454 kts | 179° |
| 2026-04-22 05:26 | 22.58085 | -97.07097 | 36076 ft | 455 kts | 179° |
| 2026-04-22 05:27 | 22.51790 | -97.06226 | 36080 ft | 455 kts | 179° |
| 2026-04-22 05:27 | 22.45506 | -97.05356 | 36081 ft | 455 kts | 179° |
| 2026-04-22 05:28 | 22.39221 | -97.04488 | 36076 ft | 455 kts | 179° |
| 2026-04-22 05:28 | 22.32933 | -97.03619 | 36077 ft | 455 kts | 179° |
| 2026-04-22 05:29 | 22.26656 | -97.02753 | 36077 ft | 456 kts | 179° |
| 2026-04-22 05:29 | 22.20319 | -97.01880 | 36077 ft | 456 kts | 179° |
| 2026-04-22 05:30 | 22.14023 | -97.01013 | 36078 ft | 456 kts | 179° |
| 2026-04-22 05:30 | 22.07736 | -97.00148 | 36077 ft | 455 kts | 179° |
| 2026-04-22 05:31 | 22.01449 | -96.99284 | 36078 ft | 456 kts | 179° |
| 2026-04-22 05:31 | 21.95163 | -96.98421 | 36068 ft | 455 kts | 178° |
| 2026-04-22 05:32 | 21.88884 | -96.97559 | 36077 ft | 455 kts | 178° |
| 2026-04-22 05:32 | 21.82603 | -96.96698 | 36078 ft | 455 kts | 178° |
| 2026-04-22 05:33 | 21.76321 | -96.95837 | 36074 ft | 455 kts | 178° |
| 2026-04-22 05:33 | 21.70041 | -96.94976 | 36075 ft | 455 kts | 178° |
| 2026-04-22 05:34 | 21.63764 | -96.94116 | 36060 ft | 455 kts | 178° |
| 2026-04-22 05:34 | 21.57446 | -96.93251 | 36071 ft | 454 kts | 178° |
| 2026-04-22 05:35 | 21.51170 | -96.92394 | 36073 ft | 454 kts | 178° |
| 2026-04-22 05:35 | 21.44903 | -96.91541 | 36072 ft | 454 kts | 178° |
| 2026-04-22 05:36 | 21.38625 | -96.90687 | 36072 ft | 454 kts | 178° |
| 2026-04-22 05:36 | 21.32356 | -96.89834 | 36073 ft | 454 kts | 178° |
| 2026-04-22 05:37 | 21.26084 | -96.88983 | 36073 ft | 454 kts | 178° |
| 2026-04-22 05:37 | 21.19807 | -96.88131 | 36073 ft | 454 kts | 178° |
| 2026-04-22 05:38 | 21.13536 | -96.87281 | 36071 ft | 454 kts | 178° |
| 2026-04-22 05:38 | 21.07267 | -96.86432 | 36069 ft | 454 kts | 178° |
| 2026-04-22 05:39 | 21.00993 | -96.85582 | 36070 ft | 454 kts | 178° |
| 2026-04-22 05:39 | 20.94712 | -96.84733 | 36072 ft | 456 kts | 178° |
| 2026-04-22 05:40 | 20.88442 | -96.83885 | 35577 ft | 450 kts | 178° |
| 2026-04-22 05:40 | 20.85315 | -96.83463 | 34650 ft | 457 kts | 178° |
| 2026-04-22 05:40 | 20.82131 | -96.83033 | 33735 ft | 464 kts | 177° |
| 2026-04-22 05:41 | 20.78924 | -96.82600 | 33014 ft | 464 kts | 177° |
| 2026-04-22 05:41 | 20.75737 | -96.82170 | 32547 ft | 459 kts | 177° |
| 2026-04-22 05:41 | 20.72549 | -96.81739 | 32111 ft | 452 kts | 176° |
| 2026-04-22 05:41 | 20.69479 | -96.81323 | 31580 ft | 450 kts | 176° |
| 2026-04-22 05:42 | 20.66380 | -96.80903 | 31023 ft | 449 kts | 176° |
| 2026-04-22 05:42 | 20.63246 | -96.80480 | 30456 ft | 448 kts | 176° |
| 2026-04-22 05:42 | 20.60155 | -96.80063 | 29813 ft | 448 kts | 176° |
| 2026-04-22 05:42 | 20.57068 | -96.79648 | 29229 ft | 446 kts | 176° |
| 2026-04-22 05:43 | 20.54008 | -96.79236 | 28725 ft | 442 kts | 175° |
| 2026-04-22 05:43 | 20.50967 | -96.78826 | 28224 ft | 438 kts | 175° |
| 2026-04-22 05:43 | 20.47953 | -96.78421 | 27705 ft | 436 kts | 175° |
| 2026-04-22 05:43 | 20.44947 | -96.78016 | 27186 ft | 434 kts | 175° |
| 2026-04-22 05:44 | 20.41982 | -96.77618 | 26694 ft | 431 kts | 175° |
| 2026-04-22 05:44 | 20.38990 | -96.77215 | 26184 ft | 429 kts | 175° |
| 2026-04-22 05:44 | 20.36041 | -96.76819 | 25683 ft | 424 kts | 175° |
| 2026-04-22 05:44 | 20.33147 | -96.76430 | 25192 ft | 413 kts | 174° |
| 2026-04-22 05:45 | 20.30308 | -96.76049 | 24751 ft | 411 kts | 174° |
| 2026-04-22 05:45 | 20.27602 | -96.75686 | 24306 ft | 410 kts | 174° |
| 2026-04-22 05:45 | 20.24769 | -96.75306 | 23848 ft | 409 kts | 174° |
| 2026-04-22 05:45 | 20.21944 | -96.74928 | 23340 ft | 408 kts | 174° |
| 2026-04-22 05:46 | 20.19155 | -96.74385 | 22796 ft | 409 kts | 162° |
| 2026-04-22 05:46 | 20.16611 | -96.73134 | 22326 ft | 397 kts | 154° |
| 2026-04-22 05:46 | 20.14179 | -96.71857 | 21985 ft | 383 kts | 155° |
| 2026-04-22 05:46 | 20.11827 | -96.70619 | 21591 ft | 372 kts | 154° |
| 2026-04-22 05:47 | 20.09498 | -96.69383 | 21192 ft | 369 kts | 154° |
| 2026-04-22 05:47 | 20.07163 | -96.68139 | 20797 ft | 379 kts | 154° |
| 2026-04-22 05:47 | 20.04793 | -96.66874 | 20392 ft | 383 kts | 154° |
| 2026-04-22 05:47 | 20.02406 | -96.65601 | 19990 ft | 384 kts | 154° |
| 2026-04-22 05:48 | 20.00022 | -96.64328 | 19598 ft | 383 kts | 154° |
| 2026-04-22 05:48 | 19.97643 | -96.63060 | 19205 ft | 382 kts | 154° |
| 2026-04-22 05:48 | 19.95268 | -96.61794 | 18876 ft | 379 kts | 154° |
| 2026-04-22 05:48 | 19.92965 | -96.60567 | 18717 ft | 363 kts | 154° |
| 2026-04-22 05:49 | 19.90762 | -96.59393 | 18550 ft | 346 kts | 154° |
| 2026-04-22 05:49 | 19.88599 | -96.58330 | 18245 ft | 342 kts | 162° |
| 2026-04-22 05:49 | 19.86317 | -96.57644 | 17892 ft | 339 kts | 165° |
| 2026-04-22 05:49 | 19.84052 | -96.56970 | 17543 ft | 337 kts | 165° |
| 2026-04-22 05:50 | 19.82557 | -96.56521 | 17285 ft | 336 kts | 165° |
| 2026-04-22 05:50 | 19.80308 | -96.55843 | 16933 ft | 336 kts | 165° |
| 2026-04-22 05:50 | 19.78067 | -96.55167 | 16580 ft | 334 kts | 165° |
| 2026-04-22 05:50 | 19.75837 | -96.54494 | 16244 ft | 332 kts | 165° |
| 2026-04-22 05:51 | 19.73619 | -96.53824 | 15895 ft | 331 kts | 164° |
| 2026-04-22 05:51 | 19.71407 | -96.53157 | 15560 ft | 329 kts | 164° |
| 2026-04-22 05:51 | 19.69211 | -96.52494 | 15225 ft | 327 kts | 164° |
| 2026-04-22 05:51 | 19.67021 | -96.51834 | 14893 ft | 326 kts | 164° |
| 2026-04-22 05:52 | 19.64842 | -96.51176 | 14564 ft | 325 kts | 164° |
| 2026-04-22 05:52 | 19.62642 | -96.50513 | 14220 ft | 324 kts | 164° |
| 2026-04-22 05:52 | 19.60501 | -96.49868 | 13905 ft | 323 kts | 163° |
| 2026-04-22 05:52 | 19.58314 | -96.49209 | 13523 ft | 322 kts | 163° |
| 2026-04-22 05:53 | 19.56165 | -96.48561 | 13182 ft | 320 kts | 163° |
| 2026-04-22 05:53 | 19.54027 | -96.47917 | 12853 ft | 319 kts | 163° |
| 2026-04-22 05:53 | 19.51901 | -96.47277 | 12520 ft | 317 kts | 163° |
| 2026-04-22 05:53 | 19.49790 | -96.46642 | 12196 ft | 315 kts | 163° |
| 2026-04-22 05:54 | 19.47691 | -96.46011 | 11873 ft | 313 kts | 163° |
| 2026-04-22 05:54 | 19.45602 | -96.45382 | 11551 ft | 311 kts | 163° |
| 2026-04-22 05:54 | 19.43523 | -96.44757 | 11236 ft | 310 kts | 163° |
| 2026-04-22 05:54 | 19.41454 | -96.44135 | 10914 ft | 308 kts | 163° |
| 2026-04-22 05:55 | 19.39406 | -96.43519 | 10600 ft | 307 kts | 163° |
| 2026-04-22 05:55 | 19.37346 | -96.42900 | 10302 ft | 305 kts | 163° |
| 2026-04-22 05:55 | 19.35326 | -96.42293 | 10140 ft | 297 kts | 163° |
| 2026-04-22 05:55 | 19.33363 | -96.41704 | 10039 ft | 290 kts | 163° |
| 2026-04-22 05:56 | 19.31427 | -96.41123 | 9702 ft | 290 kts | 163° |
| 2026-04-22 05:56 | 19.29480 | -96.40538 | 9288 ft | 292 kts | 163° |
| 2026-04-22 05:56 | 19.27501 | -96.39945 | 8943 ft | 291 kts | 164° |
| 2026-04-22 05:56 | 19.25562 | -96.39363 | 8609 ft | 286 kts | 164° |
| 2026-04-22 05:57 | 19.23656 | -96.38792 | 8323 ft | 284 kts | 164° |
| 2026-04-22 05:57 | 19.21760 | -96.38224 | 8022 ft | 282 kts | 164° |
| 2026-04-22 05:57 | 19.19873 | -96.37658 | 7729 ft | 280 kts | 164° |
| 2026-04-22 05:57 | 19.18026 | -96.37105 | 7413 ft | 271 kts | 164° |
| 2026-04-22 05:58 | 19.16244 | -96.36571 | 7132 ft | 262 kts | 164° |
| 2026-04-22 05:58 | 19.14519 | -96.36055 | 6914 ft | 258 kts | 164° |
| 2026-04-22 05:58 | 19.12771 | -96.35531 | 6643 ft | 264 kts | 164° |
| 2026-04-22 05:58 | 19.11007 | -96.35003 | 6358 ft | 263 kts | 164° |
| 2026-04-22 05:59 | 19.09268 | -96.34482 | 6044 ft | 255 kts | 164° |
| 2026-04-22 05:59 | 19.07590 | -96.33980 | 5767 ft | 246 kts | 164° |
| 2026-04-22 05:59 | 19.05973 | -96.33497 | 5501 ft | 237 kts | 164° |
| 2026-04-22 05:59 | 19.04410 | -96.33029 | 5258 ft | 231 kts | 164° |
| 2026-04-22 06:00 | 19.02869 | -96.32568 | 5016 ft | 229 kts | 164° |
| 2026-04-22 06:00 | 19.01352 | -96.32115 | 4820 ft | 224 kts | 164° |
| 2026-04-22 06:00 | 18.99864 | -96.31668 | 4557 ft | 222 kts | 163° |
| 2026-04-22 06:00 | 18.98547 | -96.30861 | 4239 ft | 222 kts | 133° |
| 2026-04-22 06:01 | 18.97814 | -96.29444 | 3977 ft | 220 kts | 106° |
| 2026-04-22 06:01 | 18.97490 | -96.27907 | 3783 ft | 211 kts | 103° |
| 2026-04-22 06:01 | 18.97190 | -96.26402 | 3528 ft | 207 kts | 103° |
| 2026-04-22 06:01 | 18.96919 | -96.24916 | 3286 ft | 206 kts | 96° |
| 2026-04-22 06:02 | 18.97205 | -96.23442 | 3008 ft | 202 kts | 60° |
| 2026-04-22 06:02 | 18.98164 | -96.22428 | 2785 ft | 195 kts | 28° |
| 2026-04-22 06:02 | 18.99433 | -96.21983 | 2607 ft | 192 kts | 13° |
| 2026-04-22 06:02 | 19.00716 | -96.21680 | 2411 ft | 185 kts | 12° |
| 2026-04-22 06:03 | 19.01953 | -96.21400 | 2221 ft | 180 kts | 13° |
| 2026-04-22 06:03 | 19.03121 | -96.21125 | 2041 ft | 162 kts | 13° |
| 2026-04-22 06:03 | 19.04196 | -96.20890 | 1905 ft | 155 kts | 12° |
| 2026-04-22 06:03 | 19.05247 | -96.20671 | 1701 ft | 153 kts | 12° |
| 2026-04-22 06:04 | 19.06292 | -96.20454 | 1459 ft | 153 kts | 12° |
| 2026-04-22 06:04 | 19.07339 | -96.20229 | 1189 ft | 154 kts | 12° |
| 2026-04-22 06:04 | 19.08371 | -96.20007 | 1004 ft | 150 kts | 12° |
| 2026-04-22 06:04 | 19.09380 | -96.19801 | 820 ft | 146 kts | 10° |
| 2026-04-22 06:05 | 19.10368 | -96.19599 | 639 ft | 145 kts | 10° |
| 2026-04-22 06:05 | 19.11351 | -96.19409 | 462 ft | 143 kts | 11° |
| 2026-04-22 06:05 | 19.12336 | -96.19207 | 264 ft | 141 kts | 11° |
| 2026-04-22 06:05 | 19.13272 | -96.19011 | 101 ft | 129 kts | 11° |
| 2026-04-22 06:06 | 19.14043 | -96.18850 | 85 ft | 88 kts | 11° |
| 2026-04-22 06:06 | 19.14423 | -96.18771 | 73 ft | 30 kts | 11° |
| 2026-04-22 06:06 | 19.14558 | -96.18733 | 76 ft | 8 kts | 46° |
| 2026-04-22 06:06 | 19.14564 | -96.18677 | 72 ft | 7 kts | 100° |
| 2026-04-22 06:07 | 19.14562 | -96.18664 | 75 ft | 0 kts | 101° |
| 2026-04-22 06:07 | 19.14561 | -96.18656 | 74 ft | 2 kts | 101° |
| 2026-04-22 06:07 | 19.14556 | -96.18633 | 76 ft | 4 kts | 101° |
| 2026-04-22 06:07 | 19.14547 | -96.18584 | 74 ft | 11 kts | 106° |
| 2026-04-22 06:08 | 19.14468 | -96.18558 | 67 ft | 15 kts | 191° |
| 2026-04-22 06:08 | 19.14374 | -96.18570 | 72 ft | 13 kts | 167° |
| 2026-04-22 06:08 | 19.14340 | -96.18516 | 76 ft | 10 kts | 103° |
| 2026-04-22 06:08 | 19.14331 | -96.18435 | 78 ft | 12 kts | 90° |
| 2026-04-22 06:09 | 19.14331 | -96.18413 | 73 ft | 0 kts | 89° |